sensor_id;sensor_type;location;lat;lon;timestamp;P1;durP1;ratioP1;P2;durP2;ratioP2
59880;SDS011;45751;51.380;10.326;2023-04-25T00:01:56;8.93;;;2.72;;
59880;SDS011;45751;51.380;10.326;2023-04-25T00:04:22;6.70;;;2.38;;
59880;SDS011;45751;51.380;10.326;2023-04-25T00:06:50;6.95;;;2.83;;
59880;SDS011;45751;51.380;10.326;2023-04-25T00:09:18;7.28;;;2.83;;
59880;SDS011;45751;51.380;10.326;2023-04-25T00:11:45;9.77;;;2.80;;
59880;SDS011;45751;51.380;10.326;2023-04-25T00:14:12;6.57;;;2.60;;
59880;SDS011;45751;51.380;10.326;2023-04-25T00:16:39;9.95;;;2.85;;
59880;SDS011;45751;51.380;10.326;2023-04-25T00:19:07;6.90;;;2.35;;
59880;SDS011;45751;51.380;10.326;2023-04-25T00:21:35;7.43;;;2.85;;
59880;SDS011;45751;51.380;10.326;2023-04-25T00:24:07;7.63;;;2.38;;
59880;SDS011;45751;51.380;10.326;2023-04-25T00:26:34;7.95;;;2.67;;
59880;SDS011;45751;51.380;10.326;2023-04-25T00:29:02;9.52;;;2.95;;
59880;SDS011;45751;51.380;10.326;2023-04-25T00:31:29;11.10;;;3.10;;
59880;SDS011;45751;51.380;10.326;2023-04-25T00:33:56;6.18;;;2.38;;
59880;SDS011;45751;51.380;10.326;2023-04-25T00:36:24;7.05;;;2.67;;
59880;SDS011;45751;51.380;10.326;2023-04-25T00:38:51;8.95;;;3.13;;
59880;SDS011;45751;51.380;10.326;2023-04-25T00:41:20;7.53;;;2.88;;
59880;SDS011;45751;51.380;10.326;2023-04-25T00:43:47;10.45;;;2.40;;
59880;SDS011;45751;51.380;10.326;2023-04-25T00:46:15;9.13;;;2.53;;
59880;SDS011;45751;51.380;10.326;2023-04-25T00:48:42;7.55;;;3.35;;
59880;SDS011;45751;51.380;10.326;2023-04-25T00:51:09;7.47;;;2.05;;
59880;SDS011;45751;51.380;10.326;2023-04-25T00:53:42;6.88;;;2.22;;
59880;SDS011;45751;51.380;10.326;2023-04-25T00:56:09;8.70;;;2.88;;
59880;SDS011;45751;51.380;10.326;2023-04-25T00:58:36;7.90;;;3.05;;
59880;SDS011;45751;51.380;10.326;2023-04-25T01:01:08;9.60;;;4.00;;
59880;SDS011;45751;51.380;10.326;2023-04-25T01:03:37;13.20;;;3.72;;
59880;SDS011;45751;51.380;10.326;2023-04-25T01:06:10;9.93;;;3.78;;
59880;SDS011;45751;51.380;10.326;2023-04-25T01:08:38;9.88;;;4.72;;
59880;SDS011;45751;51.380;10.326;2023-04-25T01:11:05;14.48;;;4.75;;
59880;SDS011;45751;51.380;10.326;2023-04-25T01:13:33;10.98;;;3.45;;
59880;SDS011;45751;51.380;10.326;2023-04-25T01:16:01;13.88;;;3.90;;
59880;SDS011;45751;51.380;10.326;2023-04-25T01:18:29;12.10;;;4.45;;
59880;SDS011;45751;51.380;10.326;2023-04-25T01:20:56;9.20;;;3.88;;
59880;SDS011;45751;51.380;10.326;2023-04-25T01:23:33;12.32;;;3.75;;
59880;SDS011;45751;51.380;10.326;2023-04-25T01:26:00;13.43;;;5.28;;
59880;SDS011;45751;51.380;10.326;2023-04-25T01:28:28;9.27;;;4.28;;
59880;SDS011;45751;51.380;10.326;2023-04-25T01:30:56;8.93;;;3.47;;
59880;SDS011;45751;51.380;10.326;2023-04-25T01:33:24;8.73;;;3.92;;
59880;SDS011;45751;51.380;10.326;2023-04-25T01:35:51;14.15;;;4.05;;
59880;SDS011;45751;51.380;10.326;2023-04-25T01:38:19;12.82;;;3.72;;
59880;SDS011;45751;51.380;10.326;2023-04-25T01:40:46;14.20;;;3.90;;
59880;SDS011;45751;51.380;10.326;2023-04-25T01:43:17;7.97;;;3.30;;
59880;SDS011;45751;51.380;10.326;2023-04-25T01:45:44;15.07;;;5.00;;
59880;SDS011;45751;51.380;10.326;2023-04-25T01:48:12;12.18;;;3.70;;
59880;SDS011;45751;51.380;10.326;2023-04-25T01:50:43;14.82;;;4.47;;
59880;SDS011;45751;51.380;10.326;2023-04-25T01:53:12;10.90;;;3.95;;
59880;SDS011;45751;51.380;10.326;2023-04-25T01:55:43;11.63;;;3.97;;
59880;SDS011;45751;51.380;10.326;2023-04-25T01:58:14;10.02;;;3.22;;
59880;SDS011;45751;51.380;10.326;2023-04-25T02:00:59;7.70;;;3.53;;
59880;SDS011;45751;51.380;10.326;2023-04-25T02:03:32;8.35;;;3.38;;
59880;SDS011;45751;51.380;10.326;2023-04-25T02:06:02;16.33;;;4.03;;
59880;SDS011;45751;51.380;10.326;2023-04-25T02:08:31;11.95;;;3.63;;
59880;SDS011;45751;51.380;10.326;2023-04-25T02:10:58;8.48;;;3.42;;
59880;SDS011;45751;51.380;10.326;2023-04-25T02:13:31;12.85;;;3.45;;
59880;SDS011;45751;51.380;10.326;2023-04-25T02:16:10;7.47;;;2.88;;
59880;SDS011;45751;51.380;10.326;2023-04-25T02:18:37;10.57;;;3.65;;
59880;SDS011;45751;51.380;10.326;2023-04-25T02:21:05;9.35;;;3.30;;
59880;SDS011;45751;51.380;10.326;2023-04-25T02:23:32;11.95;;;3.83;;
59880;SDS011;45751;51.380;10.326;2023-04-25T02:25:59;11.95;;;3.35;;
59880;SDS011;45751;51.380;10.326;2023-04-25T02:28:26;9.65;;;4.10;;
59880;SDS011;45751;51.380;10.326;2023-04-25T02:30:53;7.60;;;2.85;;
59880;SDS011;45751;51.380;10.326;2023-04-25T02:33:23;9.32;;;3.05;;
59880;SDS011;45751;51.380;10.326;2023-04-25T02:35:50;9.73;;;3.25;;
59880;SDS011;45751;51.380;10.326;2023-04-25T02:38:16;15.40;;;4.10;;
59880;SDS011;45751;51.380;10.326;2023-04-25T02:40:43;8.23;;;3.17;;
59880;SDS011;45751;51.380;10.326;2023-04-25T02:43:10;9.40;;;3.30;;
59880;SDS011;45751;51.380;10.326;2023-04-25T02:45:37;11.95;;;3.00;;
59880;SDS011;45751;51.380;10.326;2023-04-25T02:48:04;13.00;;;3.85;;
59880;SDS011;45751;51.380;10.326;2023-04-25T02:50:31;8.43;;;3.67;;
59880;SDS011;45751;51.380;10.326;2023-04-25T02:52:58;14.93;;;4.13;;
59880;SDS011;45751;51.380;10.326;2023-04-25T02:55:33;8.73;;;3.13;;
59880;SDS011;45751;51.380;10.326;2023-04-25T02:58:01;9.63;;;2.95;;
59880;SDS011;45751;51.380;10.326;2023-04-25T03:00:49;9.93;;;3.50;;
59880;SDS011;45751;51.380;10.326;2023-04-25T03:03:16;9.60;;;3.40;;
59880;SDS011;45751;51.380;10.326;2023-04-25T03:05:44;9.85;;;3.97;;
59880;SDS011;45751;51.380;10.326;2023-04-25T03:08:15;10.02;;;4.43;;
59880;SDS011;45751;51.380;10.326;2023-04-25T03:10:42;10.40;;;3.60;;
59880;SDS011;45751;51.380;10.326;2023-04-25T03:13:10;12.70;;;4.65;;
59880;SDS011;45751;51.380;10.326;2023-04-25T03:15:38;13.80;;;4.38;;
59880;SDS011;45751;51.380;10.326;2023-04-25T03:18:06;14.02;;;3.65;;
59880;SDS011;45751;51.380;10.326;2023-04-25T03:20:33;9.73;;;2.92;;
59880;SDS011;45751;51.380;10.326;2023-04-25T03:22:59;10.38;;;4.10;;
59880;SDS011;45751;51.380;10.326;2023-04-25T03:25:28;8.25;;;3.53;;
59880;SDS011;45751;51.380;10.326;2023-04-25T03:27:55;9.95;;;3.17;;
59880;SDS011;45751;51.380;10.326;2023-04-25T03:30:22;8.85;;;3.22;;
59880;SDS011;45751;51.380;10.326;2023-04-25T03:32:48;8.77;;;3.03;;
59880;SDS011;45751;51.380;10.326;2023-04-25T03:35:16;8.73;;;3.03;;
59880;SDS011;45751;51.380;10.326;2023-04-25T03:37:43;7.32;;;2.88;;
59880;SDS011;45751;51.380;10.326;2023-04-25T03:40:18;9.55;;;2.85;;
59880;SDS011;45751;51.380;10.326;2023-04-25T03:43:09;8.80;;;4.05;;
59880;SDS011;45751;51.380;10.326;2023-04-25T03:45:37;10.20;;;2.40;;
59880;SDS011;45751;51.380;10.326;2023-04-25T03:48:04;8.05;;;3.00;;
59880;SDS011;45751;51.380;10.326;2023-04-25T03:50:31;7.78;;;2.78;;
59880;SDS011;45751;51.380;10.326;2023-04-25T03:52:58;8.07;;;2.97;;
59880;SDS011;45751;51.380;10.326;2023-04-25T03:55:29;8.75;;;2.80;;
59880;SDS011;45751;51.380;10.326;2023-04-25T03:57:55;11.20;;;3.75;;
59880;SDS011;45751;51.380;10.326;2023-04-25T04:00:24;6.70;;;2.85;;
59880;SDS011;45751;51.380;10.326;2023-04-25T04:02:52;8.27;;;3.25;;
59880;SDS011;45751;51.380;10.326;2023-04-25T04:05:19;9.23;;;3.30;;
59880;SDS011;45751;51.380;10.326;2023-04-25T04:07:53;10.18;;;3.15;;
59880;SDS011;45751;51.380;10.326;2023-04-25T04:10:22;12.85;;;3.65;;
59880;SDS011;45751;51.380;10.326;2023-04-25T04:12:49;11.20;;;3.58;;
59880;SDS011;45751;51.380;10.326;2023-04-25T04:15:16;10.73;;;2.70;;
59880;SDS011;45751;51.380;10.326;2023-04-25T04:17:44;8.02;;;2.75;;
59880;SDS011;45751;51.380;10.326;2023-04-25T04:20:13;8.48;;;3.33;;
59880;SDS011;45751;51.380;10.326;2023-04-25T04:22:40;8.35;;;3.15;;
59880;SDS011;45751;51.380;10.326;2023-04-25T04:25:10;9.88;;;3.38;;
59880;SDS011;45751;51.380;10.326;2023-04-25T04:28:11;6.63;;;2.03;;
59880;SDS011;45751;51.380;10.326;2023-04-25T04:31:03;10.98;;;3.15;;
59880;SDS011;45751;51.380;10.326;2023-04-25T04:33:30;8.05;;;3.13;;
59880;SDS011;45751;51.380;10.326;2023-04-25T04:36:01;8.80;;;3.28;;
59880;SDS011;45751;51.380;10.326;2023-04-25T04:38:31;9.93;;;3.78;;
59880;SDS011;45751;51.380;10.326;2023-04-25T04:41:02;7.18;;;3.05;;
59880;SDS011;45751;51.380;10.326;2023-04-25T04:43:38;9.93;;;3.20;;
59880;SDS011;45751;51.380;10.326;2023-04-25T04:46:34;11.73;;;3.78;;
59880;SDS011;45751;51.380;10.326;2023-04-25T04:49:24;7.72;;;2.80;;
59880;SDS011;45751;51.380;10.326;2023-04-25T04:52:15;6.35;;;2.55;;
59880;SDS011;45751;51.380;10.326;2023-04-25T04:55:02;9.73;;;2.72;;
59880;SDS011;45751;51.380;10.326;2023-04-25T04:57:42;8.40;;;3.45;;
59880;SDS011;45751;51.380;10.326;2023-04-25T05:00:28;7.82;;;2.35;;
59880;SDS011;45751;51.380;10.326;2023-04-25T05:03:29;8.02;;;2.95;;
59880;SDS011;45751;51.380;10.326;2023-04-25T05:06:22;7.50;;;3.05;;
59880;SDS011;45751;51.380;10.326;2023-04-25T05:09:11;9.48;;;3.03;;
59880;SDS011;45751;51.380;10.326;2023-04-25T05:12:03;8.57;;;3.70;;
59880;SDS011;45751;51.380;10.326;2023-04-25T05:14:53;7.03;;;2.40;;
59880;SDS011;45751;51.380;10.326;2023-04-25T05:17:35;9.07;;;3.25;;
59880;SDS011;45751;51.380;10.326;2023-04-25T05:20:21;10.73;;;3.75;;
59880;SDS011;45751;51.380;10.326;2023-04-25T05:22:48;9.02;;;3.00;;
59880;SDS011;45751;51.380;10.326;2023-04-25T05:25:19;7.72;;;3.25;;
59880;SDS011;45751;51.380;10.326;2023-04-25T05:27:54;7.40;;;2.90;;
59880;SDS011;45751;51.380;10.326;2023-04-25T05:30:37;12.73;;;3.08;;
59880;SDS011;45751;51.380;10.326;2023-04-25T05:33:08;8.52;;;3.78;;
59880;SDS011;45751;51.380;10.326;2023-04-25T05:35:36;9.00;;;2.97;;
59880;SDS011;45751;51.380;10.326;2023-04-25T05:38:03;9.05;;;2.95;;
59880;SDS011;45751;51.380;10.326;2023-04-25T05:40:48;8.45;;;2.67;;
59880;SDS011;45751;51.380;10.326;2023-04-25T05:43:38;9.40;;;3.38;;
59880;SDS011;45751;51.380;10.326;2023-04-25T05:46:19;8.38;;;3.47;;
59880;SDS011;45751;51.380;10.326;2023-04-25T05:49:04;7.25;;;2.70;;
59880;SDS011;45751;51.380;10.326;2023-04-25T05:51:39;12.35;;;3.03;;
59880;SDS011;45751;51.380;10.326;2023-04-25T05:54:41;9.15;;;3.10;;
59880;SDS011;45751;51.380;10.326;2023-04-25T05:57:08;6.88;;;3.03;;
59880;SDS011;45751;51.380;10.326;2023-04-25T05:59:44;9.00;;;3.33;;
59880;SDS011;45751;51.380;10.326;2023-04-25T06:02:12;8.00;;;3.28;;
59880;SDS011;45751;51.380;10.326;2023-04-25T06:04:41;10.43;;;2.75;;
59880;SDS011;45751;51.380;10.326;2023-04-25T06:07:08;7.55;;;3.25;;
59880;SDS011;45751;51.380;10.326;2023-04-25T06:09:35;8.50;;;3.33;;
59880;SDS011;45751;51.380;10.326;2023-04-25T06:12:02;8.77;;;3.25;;
59880;SDS011;45751;51.380;10.326;2023-04-25T06:14:30;9.15;;;2.72;;
59880;SDS011;45751;51.380;10.326;2023-04-25T06:16:57;12.02;;;2.72;;
59880;SDS011;45751;51.380;10.326;2023-04-25T06:19:25;7.78;;;2.83;;
59880;SDS011;45751;51.380;10.326;2023-04-25T06:21:53;8.85;;;2.85;;
59880;SDS011;45751;51.380;10.326;2023-04-25T06:24:19;8.20;;;3.17;;
59880;SDS011;45751;51.380;10.326;2023-04-25T06:26:46;7.20;;;2.72;;
59880;SDS011;45751;51.380;10.326;2023-04-25T06:29:14;8.43;;;2.95;;
59880;SDS011;45751;51.380;10.326;2023-04-25T06:31:41;7.13;;;2.17;;
59880;SDS011;45751;51.380;10.326;2023-04-25T06:34:08;7.97;;;2.53;;
59880;SDS011;45751;51.380;10.326;2023-04-25T06:36:39;8.23;;;3.08;;
59880;SDS011;45751;51.380;10.326;2023-04-25T06:39:10;7.80;;;2.53;;
59880;SDS011;45751;51.380;10.326;2023-04-25T06:41:37;8.02;;;2.47;;
59880;SDS011;45751;51.380;10.326;2023-04-25T06:44:06;6.90;;;1.40;;
59880;SDS011;45751;51.380;10.326;2023-04-25T06:46:48;5.28;;;1.88;;
59880;SDS011;45751;51.380;10.326;2023-04-25T06:49:16;9.52;;;1.90;;
59880;SDS011;45751;51.380;10.326;2023-04-25T06:51:44;8.10;;;2.35;;
59880;SDS011;45751;51.380;10.326;2023-04-25T06:54:11;6.65;;;1.70;;
59880;SDS011;45751;51.380;10.326;2023-04-25T06:56:50;9.20;;;1.92;;
59880;SDS011;45751;51.380;10.326;2023-04-25T06:59:17;8.68;;;2.28;;
59880;SDS011;45751;51.380;10.326;2023-04-25T07:01:45;6.40;;;2.42;;
59880;SDS011;45751;51.380;10.326;2023-04-25T07:04:18;5.55;;;2.40;;
59880;SDS011;45751;51.380;10.326;2023-04-25T07:06:53;12.02;;;2.38;;
59880;SDS011;45751;51.380;10.326;2023-04-25T07:09:28;6.05;;;1.73;;
59880;SDS011;45751;51.380;10.326;2023-04-25T07:11:56;6.20;;;2.03;;
59880;SDS011;45751;51.380;10.326;2023-04-25T07:14:23;6.68;;;1.70;;
59880;SDS011;45751;51.380;10.326;2023-04-25T07:16:50;13.60;;;2.97;;
59880;SDS011;45751;51.380;10.326;2023-04-25T07:19:18;12.43;;;2.90;;
59880;SDS011;45751;51.380;10.326;2023-04-25T07:21:45;11.52;;;2.35;;
59880;SDS011;45751;51.380;10.326;2023-04-25T07:24:12;7.30;;;2.47;;
59880;SDS011;45751;51.380;10.326;2023-04-25T07:26:44;5.10;;;1.60;;
59880;SDS011;45751;51.380;10.326;2023-04-25T07:29:27;9.75;;;1.90;;
59880;SDS011;45751;51.380;10.326;2023-04-25T07:31:54;6.88;;;1.75;;
59880;SDS011;45751;51.380;10.326;2023-04-25T07:34:21;11.43;;;2.35;;
59880;SDS011;45751;51.380;10.326;2023-04-25T07:36:48;13.48;;;2.60;;
59880;SDS011;45751;51.380;10.326;2023-04-25T07:39:15;11.30;;;1.85;;
59880;SDS011;45751;51.380;10.326;2023-04-25T07:41:43;8.07;;;2.55;;
59880;SDS011;45751;51.380;10.326;2023-04-25T07:44:16;4.50;;;1.42;;
59880;SDS011;45751;51.380;10.326;2023-04-25T07:46:43;9.13;;;1.92;;
59880;SDS011;45751;51.380;10.326;2023-04-25T07:49:10;12.85;;;2.25;;
59880;SDS011;45751;51.380;10.326;2023-04-25T07:51:39;12.45;;;2.88;;
59880;SDS011;45751;51.380;10.326;2023-04-25T07:54:13;10.88;;;2.20;;
59880;SDS011;45751;51.380;10.326;2023-04-25T07:56:46;5.53;;;1.70;;
59880;SDS011;45751;51.380;10.326;2023-04-25T07:59:19;11.55;;;1.92;;
59880;SDS011;45751;51.380;10.326;2023-04-25T08:01:47;10.40;;;2.13;;
59880;SDS011;45751;51.380;10.326;2023-04-25T08:04:15;11.23;;;2.38;;
59880;SDS011;45751;51.380;10.326;2023-04-25T08:07:03;9.25;;;1.48;;
59880;SDS011;45751;51.380;10.326;2023-04-25T08:09:37;8.68;;;2.33;;
59880;SDS011;45751;51.380;10.326;2023-04-25T08:12:10;12.43;;;2.28;;
59880;SDS011;45751;51.380;10.326;2023-04-25T08:14:37;5.90;;;1.63;;
59880;SDS011;45751;51.380;10.326;2023-04-25T08:17:06;12.23;;;2.10;;
59880;SDS011;45751;51.380;10.326;2023-04-25T08:19:39;11.77;;;4.30;;
59880;SDS011;45751;51.380;10.326;2023-04-25T08:22:10;9.85;;;2.00;;
59880;SDS011;45751;51.380;10.326;2023-04-25T08:24:47;7.35;;;2.15;;
59880;SDS011;45751;51.380;10.326;2023-04-25T08:27:15;4.07;;;1.10;;
59880;SDS011;45751;51.380;10.326;2023-04-25T08:29:42;11.45;;;1.77;;
59880;SDS011;45751;51.380;10.326;2023-04-25T08:32:09;8.85;;;2.00;;
59880;SDS011;45751;51.380;10.326;2023-04-25T08:34:42;8.52;;;1.52;;
59880;SDS011;45751;51.380;10.326;2023-04-25T08:37:10;7.10;;;1.83;;
59880;SDS011;45751;51.380;10.326;2023-04-25T08:39:48;7.13;;;1.38;;
59880;SDS011;45751;51.380;10.326;2023-04-25T08:42:41;9.27;;;2.47;;
59880;SDS011;45751;51.380;10.326;2023-04-25T08:45:09;6.75;;;1.50;;
59880;SDS011;45751;51.380;10.326;2023-04-25T08:47:38;8.52;;;1.45;;
59880;SDS011;45751;51.380;10.326;2023-04-25T08:50:06;7.25;;;1.25;;
59880;SDS011;45751;51.380;10.326;2023-04-25T08:52:39;4.82;;;1.20;;
59880;SDS011;45751;51.380;10.326;2023-04-25T08:55:11;5.80;;;2.55;;
59880;SDS011;45751;51.380;10.326;2023-04-25T08:57:42;6.30;;;2.20;;
59880;SDS011;45751;51.380;10.326;2023-04-25T09:02:40;4.47;;;1.75;;
59880;SDS011;45751;51.380;10.326;2023-04-25T09:05:09;6.28;;;1.98;;
59880;SDS011;45751;51.380;10.326;2023-04-25T09:10:07;12.57;;;2.85;;
59880;SDS011;45751;51.380;10.326;2023-04-25T09:12:36;6.95;;;2.08;;
59880;SDS011;45751;51.380;10.326;2023-04-25T09:15:07;9.95;;;1.88;;
59880;SDS011;45751;51.380;10.326;2023-04-25T09:17:59;5.78;;;2.30;;
59880;SDS011;45751;51.380;10.326;2023-04-25T09:20:32;6.72;;;2.33;;
59880;SDS011;45751;51.380;10.326;2023-04-25T09:23:10;11.77;;;2.33;;
59880;SDS011;45751;51.380;10.326;2023-04-25T09:25:38;6.03;;;1.92;;
59880;SDS011;45751;51.380;10.326;2023-04-25T09:28:08;8.82;;;1.45;;
59880;SDS011;45751;51.380;10.326;2023-04-25T09:30:35;5.63;;;1.40;;
59880;SDS011;45751;51.380;10.326;2023-04-25T09:33:08;10.73;;;2.70;;
59880;SDS011;45751;51.380;10.326;2023-04-25T09:35:39;13.82;;;2.88;;
59880;SDS011;45751;51.380;10.326;2023-04-25T09:38:12;10.27;;;2.15;;
59880;SDS011;45751;51.380;10.326;2023-04-25T09:40:58;7.30;;;2.42;;
59880;SDS011;45751;51.380;10.326;2023-04-25T09:43:47;11.65;;;1.95;;
59880;SDS011;45751;51.380;10.326;2023-04-25T09:46:16;8.88;;;2.25;;
59880;SDS011;45751;51.380;10.326;2023-04-25T09:48:51;8.52;;;2.22;;
59880;SDS011;45751;51.380;10.326;2023-04-25T09:51:33;8.10;;;2.10;;
59880;SDS011;45751;51.380;10.326;2023-04-25T09:54:01;14.32;;;3.35;;
59880;SDS011;45751;51.380;10.326;2023-04-25T09:56:35;7.18;;;2.30;;
59880;SDS011;45751;51.380;10.326;2023-04-25T09:59:05;12.13;;;2.20;;
59880;SDS011;45751;51.380;10.326;2023-04-25T10:01:36;8.63;;;2.47;;
59880;SDS011;45751;51.380;10.326;2023-04-25T10:04:19;8.32;;;2.03;;
59880;SDS011;45751;51.380;10.326;2023-04-25T10:06:58;6.25;;;2.38;;
59880;SDS011;45751;51.380;10.326;2023-04-25T10:09:26;6.22;;;1.75;;
59880;SDS011;45751;51.380;10.326;2023-04-25T10:12:00;11.80;;;2.13;;
59880;SDS011;45751;51.380;10.326;2023-04-25T10:14:26;8.48;;;1.88;;
59880;SDS011;45751;51.380;10.326;2023-04-25T10:16:55;6.75;;;2.53;;
59880;SDS011;45751;51.380;10.326;2023-04-25T10:19:24;6.03;;;2.13;;
59880;SDS011;45751;51.380;10.326;2023-04-25T10:24:32;8.70;;;3.03;;
59880;SDS011;45751;51.380;10.326;2023-04-25T10:27:00;12.20;;;2.10;;
59880;SDS011;45751;51.380;10.326;2023-04-25T10:29:28;8.32;;;2.65;;
59880;SDS011;45751;51.380;10.326;2023-04-25T10:31:55;8.15;;;2.22;;
59880;SDS011;45751;51.380;10.326;2023-04-25T10:34:24;7.03;;;1.80;;
59880;SDS011;45751;51.380;10.326;2023-04-25T10:37:05;5.85;;;2.40;;
59880;SDS011;45751;51.380;10.326;2023-04-25T10:39:34;9.88;;;1.80;;
59880;SDS011;45751;51.380;10.326;2023-04-25T10:42:02;9.38;;;2.08;;
59880;SDS011;45751;51.380;10.326;2023-04-25T10:44:29;7.10;;;2.08;;
59880;SDS011;45751;51.380;10.326;2023-04-25T10:46:57;10.23;;;3.10;;
59880;SDS011;45751;51.380;10.326;2023-04-25T10:54:59;5.32;;;1.55;;
59880;SDS011;45751;51.380;10.326;2023-04-25T10:57:30;7.85;;;2.03;;
59880;SDS011;45751;51.380;10.326;2023-04-25T10:59:58;6.72;;;2.05;;
59880;SDS011;45751;51.380;10.326;2023-04-25T11:02:27;4.53;;;1.23;;
59880;SDS011;45751;51.380;10.326;2023-04-25T11:04:55;3.78;;;1.02;;
59880;SDS011;45751;51.380;10.326;2023-04-25T11:10:33;6.80;;;1.27;;
59880;SDS011;45751;51.380;10.326;2023-04-25T11:13:02;5.03;;;1.65;;
59880;SDS011;45751;51.380;10.326;2023-04-25T11:15:29;7.85;;;1.67;;
59880;SDS011;45751;51.380;10.326;2023-04-25T11:17:56;11.15;;;2.75;;
59880;SDS011;45751;51.380;10.326;2023-04-25T11:20:25;6.03;;;1.35;;
59880;SDS011;45751;51.380;10.326;2023-04-25T11:22:54;5.65;;;1.45;;
59880;SDS011;45751;51.380;10.326;2023-04-25T11:25:24;5.30;;;1.80;;
59880;SDS011;45751;51.380;10.326;2023-04-25T11:27:52;6.35;;;2.10;;
59880;SDS011;45751;51.380;10.326;2023-04-25T11:30:20;3.50;;;0.95;;
59880;SDS011;45751;51.380;10.326;2023-04-25T11:32:48;4.90;;;1.42;;
59880;SDS011;45751;51.380;10.326;2023-04-25T11:35:15;6.75;;;1.98;;
59880;SDS011;45751;51.380;10.326;2023-04-25T11:37:43;5.85;;;1.38;;
59880;SDS011;45751;51.380;10.326;2023-04-25T11:40:10;5.82;;;1.83;;
59880;SDS011;45751;51.380;10.326;2023-04-25T11:42:47;4.38;;;1.40;;
59880;SDS011;45751;51.380;10.326;2023-04-25T11:45:14;4.43;;;1.15;;
59880;SDS011;45751;51.380;10.326;2023-04-25T11:47:41;6.03;;;1.42;;
59880;SDS011;45751;51.380;10.326;2023-04-25T11:50:09;5.47;;;1.40;;
59880;SDS011;45751;51.380;10.326;2023-04-25T11:52:40;7.90;;;2.08;;
59880;SDS011;45751;51.380;10.326;2023-04-25T11:55:08;10.10;;;2.15;;
59880;SDS011;45751;51.380;10.326;2023-04-25T11:57:43;7.60;;;1.77;;
59880;SDS011;45751;51.380;10.326;2023-04-25T12:02:52;4.43;;;1.90;;
59880;SDS011;45751;51.380;10.326;2023-04-25T12:05:23;5.25;;;1.30;;
59880;SDS011;45751;51.380;10.326;2023-04-25T12:10:43;3.45;;;1.00;;
59880;SDS011;45751;51.380;10.326;2023-04-25T12:13:24;7.60;;;1.70;;
59880;SDS011;45751;51.380;10.326;2023-04-25T12:15:55;6.40;;;1.73;;
59880;SDS011;45751;51.380;10.326;2023-04-25T12:18:23;9.97;;;2.20;;
59880;SDS011;45751;51.380;10.326;2023-04-25T12:20:53;5.18;;;1.95;;
59880;SDS011;45751;51.380;10.326;2023-04-25T12:23:26;5.72;;;1.40;;
59880;SDS011;45751;51.380;10.326;2023-04-25T12:25:54;6.13;;;2.15;;
59880;SDS011;45751;51.380;10.326;2023-04-25T12:28:23;5.32;;;2.08;;
59880;SDS011;45751;51.380;10.326;2023-04-25T12:31:03;6.07;;;1.80;;
59880;SDS011;45751;51.380;10.326;2023-04-25T12:33:35;4.90;;;1.63;;
59880;SDS011;45751;51.380;10.326;2023-04-25T12:36:04;5.22;;;1.73;;
59880;SDS011;45751;51.380;10.326;2023-04-25T12:38:40;6.13;;;1.40;;
59880;SDS011;45751;51.380;10.326;2023-04-25T12:41:08;5.75;;;1.60;;
59880;SDS011;45751;51.380;10.326;2023-04-25T12:43:35;8.35;;;1.50;;
59880;SDS011;45751;51.380;10.326;2023-04-25T12:46:02;7.72;;;2.28;;
59880;SDS011;45751;51.380;10.326;2023-04-25T12:48:29;5.35;;;1.48;;
59880;SDS011;45751;51.380;10.326;2023-04-25T12:50:56;4.82;;;1.52;;
59880;SDS011;45751;51.380;10.326;2023-04-25T12:53:23;7.72;;;1.50;;
59880;SDS011;45751;51.380;10.326;2023-04-25T12:55:50;4.55;;;1.13;;
59880;SDS011;45751;51.380;10.326;2023-04-25T12:58:18;8.30;;;2.03;;
59880;SDS011;45751;51.380;10.326;2023-04-25T13:00:45;9.88;;;2.08;;
59880;SDS011;45751;51.380;10.326;2023-04-25T13:03:13;6.50;;;2.70;;
59880;SDS011;45751;51.380;10.326;2023-04-25T13:05:40;5.25;;;1.40;;
59880;SDS011;45751;51.380;10.326;2023-04-25T13:08:07;7.18;;;1.60;;
59880;SDS011;45751;51.380;10.326;2023-04-25T13:10:34;6.07;;;1.67;;
59880;SDS011;45751;51.380;10.326;2023-04-25T13:13:02;6.88;;;1.52;;
59880;SDS011;45751;51.380;10.326;2023-04-25T13:15:29;5.18;;;1.42;;
59880;SDS011;45751;51.380;10.326;2023-04-25T13:17:56;6.57;;;1.50;;
59880;SDS011;45751;51.380;10.326;2023-04-25T13:20:23;5.10;;;1.50;;
59880;SDS011;45751;51.380;10.326;2023-04-25T13:22:50;7.68;;;1.50;;
59880;SDS011;45751;51.380;10.326;2023-04-25T13:25:17;6.28;;;1.77;;
59880;SDS011;45751;51.380;10.326;2023-04-25T13:27:44;4.70;;;1.58;;
59880;SDS011;45751;51.380;10.326;2023-04-25T13:30:11;5.78;;;1.90;;
59880;SDS011;45751;51.380;10.326;2023-04-25T13:32:38;7.97;;;1.80;;
59880;SDS011;45751;51.380;10.326;2023-04-25T13:35:08;4.15;;;1.70;;
59880;SDS011;45751;51.380;10.326;2023-04-25T13:37:39;9.90;;;1.73;;
59880;SDS011;45751;51.380;10.326;2023-04-25T13:40:07;3.40;;;1.00;;
59880;SDS011;45751;51.380;10.326;2023-04-25T13:42:37;7.67;;;1.47;;
59880;SDS011;45751;51.380;10.326;2023-04-25T13:45:04;4.97;;;1.58;;
59880;SDS011;45751;51.380;10.326;2023-04-25T13:47:32;4.85;;;1.35;;
59880;SDS011;45751;51.380;10.326;2023-04-25T13:50:00;5.07;;;1.67;;
59880;SDS011;45751;51.380;10.326;2023-04-25T13:52:29;5.85;;;2.03;;
59880;SDS011;45751;51.380;10.326;2023-04-25T13:54:56;5.15;;;2.13;;
59880;SDS011;45751;51.380;10.326;2023-04-25T13:57:23;6.25;;;1.85;;
59880;SDS011;45751;51.380;10.326;2023-04-25T13:59:51;7.30;;;1.73;;
59880;SDS011;45751;51.380;10.326;2023-04-25T14:02:19;8.60;;;2.75;;
59880;SDS011;45751;51.380;10.326;2023-04-25T14:04:46;7.88;;;1.50;;
59880;SDS011;45751;51.380;10.326;2023-04-25T14:07:13;5.13;;;1.50;;
59880;SDS011;45751;51.380;10.326;2023-04-25T14:13:55;7.38;;;1.58;;
59880;SDS011;45751;51.380;10.326;2023-04-25T14:16:22;8.57;;;1.88;;
59880;SDS011;45751;51.380;10.326;2023-04-25T14:18:49;4.90;;;1.55;;
59880;SDS011;45751;51.380;10.326;2023-04-25T14:21:16;8.63;;;1.80;;
59880;SDS011;45751;51.380;10.326;2023-04-25T14:23:43;5.57;;;1.35;;
59880;SDS011;45751;51.380;10.326;2023-04-25T14:26:10;7.22;;;1.30;;
59880;SDS011;45751;51.380;10.326;2023-04-25T14:28:38;6.03;;;1.33;;
59880;SDS011;45751;51.380;10.326;2023-04-25T14:31:05;4.53;;;1.40;;
59880;SDS011;45751;51.380;10.326;2023-04-25T14:33:33;8.38;;;1.60;;
59880;SDS011;45751;51.380;10.326;2023-04-25T14:36:00;6.75;;;1.85;;
59880;SDS011;45751;51.380;10.326;2023-04-25T14:38:27;6.90;;;1.80;;
59880;SDS011;45751;51.380;10.326;2023-04-25T14:40:54;6.20;;;1.42;;
59880;SDS011;45751;51.380;10.326;2023-04-25T14:43:21;9.02;;;1.58;;
59880;SDS011;45751;51.380;10.326;2023-04-25T14:45:48;5.55;;;1.10;;
59880;SDS011;45751;51.380;10.326;2023-04-25T14:48:15;7.65;;;2.03;;
59880;SDS011;45751;51.380;10.326;2023-04-25T14:50:44;4.78;;;1.52;;
59880;SDS011;45751;51.380;10.326;2023-04-25T14:53:12;9.98;;;1.70;;
59880;SDS011;45751;51.380;10.326;2023-04-25T14:55:40;3.67;;;1.02;;
59880;SDS011;45751;51.380;10.326;2023-04-25T14:58:07;5.47;;;1.33;;
59880;SDS011;45751;51.380;10.326;2023-04-25T15:00:34;4.53;;;1.25;;
59880;SDS011;45751;51.380;10.326;2023-04-25T15:03:01;7.10;;;1.17;;
59880;SDS011;45751;51.380;10.326;2023-04-25T15:05:29;5.50;;;1.13;;
59880;SDS011;45751;51.380;10.326;2023-04-25T15:07:56;4.07;;;1.30;;
59880;SDS011;45751;51.380;10.326;2023-04-25T15:10:23;5.00;;;1.05;;
59880;SDS011;45751;51.380;10.326;2023-04-25T15:12:50;8.73;;;1.73;;
59880;SDS011;45751;51.380;10.326;2023-04-25T15:15:17;6.25;;;1.55;;
59880;SDS011;45751;51.380;10.326;2023-04-25T15:17:52;5.80;;;1.25;;